sensor_id;sensor_type;location;lat;lon;timestamp;temperature;humidity
11136;DHT22;5622;50.840;4.948;2023-05-08T05:38:36;15.10;99.90
11136;DHT22;5622;50.840;4.948;2023-05-08T05:41:42;15.10;99.90
11136;DHT22;5622;50.840;4.948;2023-05-08T05:44:35;15.10;99.90
11136;DHT22;5622;50.840;4.948;2023-05-08T05:47:21;15.30;99.90
11136;DHT22;5622;50.840;4.948;2023-05-08T05:50:08;15.00;99.90
11136;DHT22;5622;50.840;4.948;2023-05-08T05:56:44;15.10;99.90
11136;DHT22;5622;50.840;4.948;2023-05-08T05:59:33;15.10;99.90
11136;DHT22;5622;50.840;4.948;2023-05-08T06:02:05;15.10;99.90
11136;DHT22;5622;50.840;4.948;2023-05-08T06:04:45;15.10;99.90
11136;DHT22;5622;50.840;4.948;2023-05-08T06:07:27;15.10;99.90
11136;DHT22;5622;50.840;4.948;2023-05-08T06:10:32;15.10;99.90
11136;DHT22;5622;50.840;4.948;2023-05-08T06:16:39;15.10;99.90
11136;DHT22;5622;50.840;4.948;2023-05-08T06:19:23;14.90;99.90
11136;DHT22;5622;50.840;4.948;2023-05-08T06:22:21;15.00;99.90
11136;DHT22;5622;50.840;4.948;2023-05-08T06:25:26;14.90;99.90
11136;DHT22;5622;50.840;4.948;2023-05-08T06:28:03;15.00;99.90
11136;DHT22;5622;50.840;4.948;2023-05-08T06:30:41;15.10;99.90
11136;DHT22;5622;50.840;4.948;2023-05-08T06:33:10;15.10;99.90
11136;DHT22;5622;50.840;4.948;2023-05-08T06:41:56;15.10;99.90
11136;DHT22;5622;50.840;4.948;2023-05-08T10:40:49;18.20;99.90
11136;DHT22;5622;50.840;4.948;2023-05-08T14:42:03;19.90;99.90
11136;DHT22;5622;50.840;4.948;2023-05-08T14:44:32;19.80;99.90
11136;DHT22;5622;50.840;4.948;2023-05-08T14:47:00;19.80;99.90
11136;DHT22;5622;50.840;4.948;2023-05-08T14:49:27;19.80;99.90
11136;DHT22;5622;50.840;4.948;2023-05-08T14:51:56;19.90;99.90
11136;DHT22;5622;50.840;4.948;2023-05-08T14:54:23;19.90;99.90
11136;DHT22;5622;50.840;4.948;2023-05-08T14:56:50;19.90;99.90
11136;DHT22;5622;50.840;4.948;2023-05-08T14:59:18;19.90;99.90
11136;DHT22;5622;50.840;4.948;2023-05-08T15:01:45;19.90;99.90
11136;DHT22;5622;50.840;4.948;2023-05-08T15:04:12;19.90;99.90
11136;DHT22;5622;50.840;4.948;2023-05-08T15:06:39;19.90;99.90
11136;DHT22;5622;50.840;4.948;2023-05-08T15:09:07;19.90;99.90
11136;DHT22;5622;50.840;4.948;2023-05-08T15:11:35;19.90;99.90
11136;DHT22;5622;50.840;4.948;2023-05-08T15:14:02;19.90;99.90
11136;DHT22;5622;50.840;4.948;2023-05-08T15:16:31;19.90;99.90
11136;DHT22;5622;50.840;4.948;2023-05-08T15:18:58;19.90;99.90
11136;DHT22;5622;50.840;4.948;2023-05-08T15:21:25;19.80;99.90
11136;DHT22;5622;50.840;4.948;2023-05-08T15:23:53;19.90;99.90
11136;DHT22;5622;50.840;4.948;2023-05-08T15:26:20;19.90;99.90
11136;DHT22;5622;50.840;4.948;2023-05-08T15:28:48;19.90;99.90
11136;DHT22;5622;50.840;4.948;2023-05-08T15:31:15;20.00;99.90
11136;DHT22;5622;50.840;4.948;2023-05-08T15:33:44;19.90;99.90
11136;DHT22;5622;50.840;4.948;2023-05-08T15:36:12;19.90;99.90
11136;DHT22;5622;50.840;4.948;2023-05-08T15:38:39;19.90;99.90
11136;DHT22;5622;50.840;4.948;2023-05-08T15:41:07;19.90;99.90
11136;DHT22;5622;50.840;4.948;2023-05-08T15:43:36;19.80;99.90
11136;DHT22;5622;50.840;4.948;2023-05-08T15:46:03;19.80;99.90
11136;DHT22;5622;50.840;4.948;2023-05-08T15:48:30;19.70;99.90
11136;DHT22;5622;50.840;4.948;2023-05-08T15:50:59;19.70;99.90
11136;DHT22;5622;50.840;4.948;2023-05-08T15:53:26;19.60;99.90
11136;DHT22;5622;50.840;4.948;2023-05-08T15:55:53;19.60;99.90
11136;DHT22;5622;50.840;4.948;2023-05-08T15:58:21;19.60;99.90
11136;DHT22;5622;50.840;4.948;2023-05-08T16:00:48;19.70;99.90
11136;DHT22;5622;50.840;4.948;2023-05-08T16:03:15;19.80;99.90
11136;DHT22;5622;50.840;4.948;2023-05-08T16:05:42;19.80;99.90
11136;DHT22;5622;50.840;4.948;2023-05-08T16:08:11;19.90;99.90
11136;DHT22;5622;50.840;4.948;2023-05-08T16:10:38;19.90;99.90
11136;DHT22;5622;50.840;4.948;2023-05-08T16:13:05;19.90;99.90
11136;DHT22;5622;50.840;4.948;2023-05-08T16:15:33;19.90;99.90
11136;DHT22;5622;50.840;4.948;2023-05-08T16:18:00;19.90;99.90
11136;DHT22;5622;50.840;4.948;2023-05-08T16:20:27;19.90;99.90
11136;DHT22;5622;50.840;4.948;2023-05-08T16:22:54;19.90;99.90
11136;DHT22;5622;50.840;4.948;2023-05-08T16:25:23;19.80;99.90
11136;DHT22;5622;50.840;4.948;2023-05-08T16:27:51;19.80;99.90
11136;DHT22;5622;50.840;4.948;2023-05-08T16:30:18;19.70;99.90
11136;DHT22;5622;50.840;4.948;2023-05-08T16:32:45;19.70;99.90
11136;DHT22;5622;50.840;4.948;2023-05-08T16:35:12;19.60;99.90
11136;DHT22;5622;50.840;4.948;2023-05-08T16:37:39;19.60;99.90
11136;DHT22;5622;50.840;4.948;2023-05-08T16:40:07;19.60;99.90
11136;DHT22;5622;50.840;4.948;2023-05-08T16:42:36;19.50;99.90
11136;DHT22;5622;50.840;4.948;2023-05-08T16:45:06;19.50;99.90
11136;DHT22;5622;50.840;4.948;2023-05-08T16:47:33;19.40;99.90
11136;DHT22;5622;50.840;4.948;2023-05-08T16:50:01;19.30;99.90
11136;DHT22;5622;50.840;4.948;2023-05-08T16:52:28;19.30;99.90
11136;DHT22;5622;50.840;4.948;2023-05-08T16:54:57;19.20;99.90
11136;DHT22;5622;50.840;4.948;2023-05-08T16:57:24;19.10;99.90
11136;DHT22;5622;50.840;4.948;2023-05-08T16:59:54;19.10;99.90
11136;DHT22;5622;50.840;4.948;2023-05-08T17:02:22;19.00;99.90
11136;DHT22;5622;50.840;4.948;2023-05-08T17:04:51;19.00;99.90
11136;DHT22;5622;50.840;4.948;2023-05-08T17:07:19;18.90;99.90
11136;DHT22;5622;50.840;4.948;2023-05-08T17:09:48;18.90;99.90
11136;DHT22;5622;50.840;4.948;2023-05-08T17:12:20;18.80;99.90
11136;DHT22;5622;50.840;4.948;2023-05-08T17:14:48;18.80;99.90
11136;DHT22;5622;50.840;4.948;2023-05-08T17:17:18;18.80;99.90
11136;DHT22;5622;50.840;4.948;2023-05-08T17:19:46;18.70;99.90
11136;DHT22;5622;50.840;4.948;2023-05-08T17:22:14;18.70;99.90
11136;DHT22;5622;50.840;4.948;2023-05-08T17:24:45;18.70;99.90
11136;DHT22;5622;50.840;4.948;2023-05-08T17:27:13;18.70;99.90
11136;DHT22;5622;50.840;4.948;2023-05-08T17:29:41;18.70;99.90
11136;DHT22;5622;50.840;4.948;2023-05-08T17:32:10;18.60;99.90
11136;DHT22;5622;50.840;4.948;2023-05-08T17:34:42;18.60;99.90
11136;DHT22;5622;50.840;4.948;2023-05-08T17:37:09;18.60;99.90
11136;DHT22;5622;50.840;4.948;2023-05-08T17:39:38;18.60;99.90
11136;DHT22;5622;50.840;4.948;2023-05-08T17:42:05;18.60;99.90
11136;DHT22;5622;50.840;4.948;2023-05-08T17:44:32;18.60;99.90
11136;DHT22;5622;50.840;4.948;2023-05-08T17:47:00;18.50;99.90
11136;DHT22;5622;50.840;4.948;2023-05-08T17:49:27;18.50;99.90
11136;DHT22;5622;50.840;4.948;2023-05-08T17:51:56;18.50;99.90
11136;DHT22;5622;50.840;4.948;2023-05-08T17:54:23;18.40;99.90
11136;DHT22;5622;50.840;4.948;2023-05-08T17:56:50;18.40;99.90
11136;DHT22;5622;50.840;4.948;2023-05-08T17:59:17;18.40;99.90
11136;DHT22;5622;50.840;4.948;2023-05-08T18:01:50;18.30;99.90
11136;DHT22;5622;50.840;4.948;2023-05-08T18:04:17;18.30;99.90
11136;DHT22;5622;50.840;4.948;2023-05-08T18:06:44;18.20;99.90
11136;DHT22;5622;50.840;4.948;2023-05-08T18:09:13;18.20;99.90
11136;DHT22;5622;50.840;4.948;2023-05-08T18:11:41;18.20;99.90
11136;DHT22;5622;50.840;4.948;2023-05-08T18:14:08;18.10;99.90
11136;DHT22;5622;50.840;4.948;2023-05-08T18:16:35;18.10;99.90
11136;DHT22;5622;50.840;4.948;2023-05-08T18:19:02;18.10;99.90
11136;DHT22;5622;50.840;4.948;2023-05-08T18:21:29;18.00;99.90
11136;DHT22;5622;50.840;4.948;2023-05-08T18:23:57;18.00;99.90
11136;DHT22;5622;50.840;4.948;2023-05-08T18:26:25;18.00;99.90
11136;DHT22;5622;50.840;4.948;2023-05-08T18:28:52;17.90;99.90
11136;DHT22;5622;50.840;4.948;2023-05-08T18:31:19;17.90;99.90
11136;DHT22;5622;50.840;4.948;2023-05-08T18:33:46;17.90;99.90
11136;DHT22;5622;50.840;4.948;2023-05-08T18:36:14;17.80;99.90
11136;DHT22;5622;50.840;4.948;2023-05-08T18:38:41;17.80;99.90
11136;DHT22;5622;50.840;4.948;2023-05-08T18:41:08;17.80;99.90
11136;DHT22;5622;50.840;4.948;2023-05-08T18:43:37;17.70;99.90
11136;DHT22;5622;50.840;4.948;2023-05-08T18:46:07;17.70;99.90
11136;DHT22;5622;50.840;4.948;2023-05-08T18:48:34;17.70;99.90
11136;DHT22;5622;50.840;4.948;2023-05-08T18:51:01;17.60;99.90
11136;DHT22;5622;50.840;4.948;2023-05-08T18:53:28;17.60;99.90
11136;DHT22;5622;50.840;4.948;2023-05-08T18:55:56;17.60;99.90
11136;DHT22;5622;50.840;4.948;2023-05-08T18:58:23;17.50;99.90
11136;DHT22;5622;50.840;4.948;2023-05-08T19:04:14;17.40;99.90
11136;DHT22;5622;50.840;4.948;2023-05-08T19:06:41;17.40;99.90
11136;DHT22;5622;50.840;4.948;2023-05-08T19:09:08;17.30;99.90
11136;DHT22;5622;50.840;4.948;2023-05-08T19:11:35;17.30;99.90
11136;DHT22;5622;50.840;4.948;2023-05-08T19:14:02;17.20;99.90
11136;DHT22;5622;50.840;4.948;2023-05-08T19:16:30;17.20;99.90
11136;DHT22;5622;50.840;4.948;2023-05-08T19:18:57;17.20;99.90
11136;DHT22;5622;50.840;4.948;2023-05-08T19:21:25;17.10;99.90
11136;DHT22;5622;50.840;4.948;2023-05-08T19:23:52;17.10;99.90
11136;DHT22;5622;50.840;4.948;2023-05-08T19:26:19;17.00;99.90
11136;DHT22;5622;50.840;4.948;2023-05-08T19:28:47;17.00;99.90
11136;DHT22;5622;50.840;4.948;2023-05-08T19:31:14;16.90;99.90
11136;DHT22;5622;50.840;4.948;2023-05-08T19:33:41;16.90;99.90
11136;DHT22;5622;50.840;4.948;2023-05-08T19:36:08;16.90;99.90
11136;DHT22;5622;50.840;4.948;2023-05-08T19:38:37;16.80;99.90
11136;DHT22;5622;50.840;4.948;2023-05-08T19:41:04;16.80;99.90
11136;DHT22;5622;50.840;4.948;2023-05-08T19:43:32;16.70;99.90
11136;DHT22;5622;50.840;4.948;2023-05-08T19:45:59;16.70;99.90
11136;DHT22;5622;50.840;4.948;2023-05-08T19:48:26;16.70;99.90
11136;DHT22;5622;50.840;4.948;2023-05-08T19:50:53;16.60;99.90
11136;DHT22;5622;50.840;4.948;2023-05-08T19:53:20;16.60;99.90
11136;DHT22;5622;50.840;4.948;2023-05-08T19:55:52;16.60;99.90
11136;DHT22;5622;50.840;4.948;2023-05-08T19:58:19;16.50;99.90
11136;DHT22;5622;50.840;4.948;2023-05-08T20:00:46;16.50;99.90
11136;DHT22;5622;50.840;4.948;2023-05-08T20:03:13;16.50;99.90
11136;DHT22;5622;50.840;4.948;2023-05-08T20:05:40;16.50;99.90
11136;DHT22;5622;50.840;4.948;2023-05-08T20:08:07;16.50;99.90
11136;DHT22;5622;50.840;4.948;2023-05-08T20:10:34;16.40;99.90
11136;DHT22;5622;50.840;4.948;2023-05-08T20:13:03;16.50;99.90
11136;DHT22;5622;50.840;4.948;2023-05-08T20:15:30;16.40;99.90
11136;DHT22;5622;50.840;4.948;2023-05-08T20:17:57;16.40;99.90
11136;DHT22;5622;50.840;4.948;2023-05-08T20:20:25;16.40;99.90
11136;DHT22;5622;50.840;4.948;2023-05-08T20:22:54;16.40;99.90
11136;DHT22;5622;50.840;4.948;2023-05-08T20:25:21;16.40;99.90
11136;DHT22;5622;50.840;4.948;2023-05-08T20:27:48;16.30;99.90
11136;DHT22;5622;50.840;4.948;2023-05-08T20:30:17;16.30;99.90
11136;DHT22;5622;50.840;4.948;2023-05-08T20:32:44;16.30;99.90
11136;DHT22;5622;50.840;4.948;2023-05-08T20:35:11;16.30;99.90
11136;DHT22;5622;50.840;4.948;2023-05-08T20:37:42;16.30;99.90
11136;DHT22;5622;50.840;4.948;2023-05-08T20:40:10;16.30;99.90
11136;DHT22;5622;50.840;4.948;2023-05-08T20:42:37;16.30;99.90
11136;DHT22;5622;50.840;4.948;2023-05-08T20:45:06;16.20;99.90
11136;DHT22;5622;50.840;4.948;2023-05-08T20:47:35;16.20;99.90
11136;DHT22;5622;50.840;4.948;2023-05-08T20:50:03;16.20;99.90
11136;DHT22;5622;50.840;4.948;2023-05-08T20:52:30;16.20;99.90
11136;DHT22;5622;50.840;4.948;2023-05-08T20:54:57;16.20;99.90
11136;DHT22;5622;50.840;4.948;2023-05-08T20:57:24;16.20;99.90
11136;DHT22;5622;50.840;4.948;2023-05-08T20:59:52;16.30;99.90
11136;DHT22;5622;50.840;4.948;2023-05-08T21:02:19;16.20;99.90
11136;DHT22;5622;50.840;4.948;2023-05-08T21:04:47;16.10;99.90
11136;DHT22;5622;50.840;4.948;2023-05-08T21:07:15;16.10;99.90
11136;DHT22;5622;50.840;4.948;2023-05-08T21:09:42;16.10;99.90
11136;DHT22;5622;50.840;4.948;2023-05-08T21:12:09;16.10;99.90
11136;DHT22;5622;50.840;4.948;2023-05-08T21:14:36;16.10;99.90
11136;DHT22;5622;50.840;4.948;2023-05-08T21:17:03;16.10;99.90
11136;DHT22;5622;50.840;4.948;2023-05-08T21:19:30;16.00;99.90
11136;DHT22;5622;50.840;4.948;2023-05-08T21:21:59;16.00;99.90
11136;DHT22;5622;50.840;4.948;2023-05-08T21:24:26;16.00;99.90
11136;DHT22;5622;50.840;4.948;2023-05-08T21:26:53;16.00;99.90
11136;DHT22;5622;50.840;4.948;2023-05-08T21:29:20;16.00;99.90
11136;DHT22;5622;50.840;4.948;2023-05-08T21:31:47;15.90;99.90
11136;DHT22;5622;50.840;4.948;2023-05-08T21:34:15;15.90;99.90
11136;DHT22;5622;50.840;4.948;2023-05-08T21:36:46;15.90;99.90
11136;DHT22;5622;50.840;4.948;2023-05-08T21:39:14;15.90;99.90
11136;DHT22;5622;50.840;4.948;2023-05-08T21:41:41;15.90;99.90
11136;DHT22;5622;50.840;4.948;2023-05-08T21:44:08;15.90;99.90
11136;DHT22;5622;50.840;4.948;2023-05-08T21:46:37;15.80;99.90
11136;DHT22;5622;50.840;4.948;2023-05-08T21:49:04;15.80;99.90
11136;DHT22;5622;50.840;4.948;2023-05-08T21:51:31;15.80;99.90
11136;DHT22;5622;50.840;4.948;2023-05-08T21:53:59;15.80;99.90
11136;DHT22;5622;50.840;4.948;2023-05-08T21:56:36;15.80;99.90
11136;DHT22;5622;50.840;4.948;2023-05-08T21:59:03;15.80;99.90
11136;DHT22;5622;50.840;4.948;2023-05-08T22:01:30;15.70;99.90
11136;DHT22;5622;50.840;4.948;2023-05-08T22:03:57;15.70;99.90
11136;DHT22;5622;50.840;4.948;2023-05-08T22:06:25;15.70;99.90
11136;DHT22;5622;50.840;4.948;2023-05-08T22:08:52;15.70;99.90
11136;DHT22;5622;50.840;4.948;2023-05-08T22:11:19;15.70;99.90
11136;DHT22;5622;50.840;4.948;2023-05-08T22:13:48;15.60;99.90
11136;DHT22;5622;50.840;4.948;2023-05-08T22:16:16;15.60;99.90
11136;DHT22;5622;50.840;4.948;2023-05-08T22:18:43;15.60;99.90
11136;DHT22;5622;50.840;4.948;2023-05-08T22:21:10;15.60;99.90
11136;DHT22;5622;50.840;4.948;2023-05-08T22:23:37;15.60;99.90
11136;DHT22;5622;50.840;4.948;2023-05-08T22:26:04;15.60;99.90
11136;DHT22;5622;50.840;4.948;2023-05-08T22:28:31;15.60;99.90
11136;DHT22;5622;50.840;4.948;2023-05-08T22:31:00;15.50;99.90
11136;DHT22;5622;50.840;4.948;2023-05-08T22:33:27;15.50;99.90
11136;DHT22;5622;50.840;4.948;2023-05-08T22:35:57;15.50;99.90
11136;DHT22;5622;50.840;4.948;2023-05-08T22:38:24;15.50;99.90
11136;DHT22;5622;50.840;4.948;2023-05-08T22:40:51;15.50;99.90
11136;DHT22;5622;50.840;4.948;2023-05-08T22:43:21;15.40;99.90
11136;DHT22;5622;50.840;4.948;2023-05-08T22:45:48;15.40;99.90
11136;DHT22;5622;50.840;4.948;2023-05-08T22:48:16;15.40;99.90
11136;DHT22;5622;50.840;4.948;2023-05-08T22:50:44;15.30;99.90
11136;DHT22;5622;50.840;4.948;2023-05-08T22:53:11;15.30;99.90
11136;DHT22;5622;50.840;4.948;2023-05-08T22:55:38;15.30;99.90
11136;DHT22;5622;50.840;4.948;2023-05-08T22:58:05;15.30;99.90
11136;DHT22;5622;50.840;4.948;2023-05-08T23:00:32;15.30;99.90
11136;DHT22;5622;50.840;4.948;2023-05-08T23:02:59;15.30;99.90
11136;DHT22;5622;50.840;4.948;2023-05-08T23:05:27;15.30;99.90
11136;DHT22;5622;50.840;4.948;2023-05-08T23:07:55;15.20;99.90
11136;DHT22;5622;50.840;4.948;2023-05-08T23:10:22;15.20;99.90
11136;DHT22;5622;50.840;4.948;2023-05-08T23:12:49;15.20;99.90
11136;DHT22;5622;50.840;4.948;2023-05-08T23:15:16;15.20;99.90
11136;DHT22;5622;50.840;4.948;2023-05-08T23:17:45;15.20;99.90
11136;DHT22;5622;50.840;4.948;2023-05-08T23:20:13;15.20;99.90
11136;DHT22;5622;50.840;4.948;2023-05-08T23:22:41;15.20;99.90
11136;DHT22;5622;50.840;4.948;2023-05-08T23:25:09;15.20;99.90
11136;DHT22;5622;50.840;4.948;2023-05-08T23:27:36;15.20;99.90
11136;DHT22;5622;50.840;4.948;2023-05-08T23:30:04;15.20;99.90
11136;DHT22;5622;50.840;4.948;2023-05-08T23:32:31;15.20;99.90
11136;DHT22;5622;50.840;4.948;2023-05-08T23:34:58;15.10;99.90
11136;DHT22;5622;50.840;4.948;2023-05-08T23:37:25;15.10;99.90
11136;DHT22;5622;50.840;4.948;2023-05-08T23:39:54;15.00;99.90
11136;DHT22;5622;50.840;4.948;2023-05-08T23:42:21;15.10;99.90
11136;DHT22;5622;50.840;4.948;2023-05-08T23:44:48;15.00;99.90
11136;DHT22;5622;50.840;4.948;2023-05-08T23:47:15;15.00;99.90
11136;DHT22;5622;50.840;4.948;2023-05-08T23:49:43;15.00;99.90
11136;DHT22;5622;50.840;4.948;2023-05-08T23:52:11;15.00;99.90
11136;DHT22;5622;50.840;4.948;2023-05-08T23:54:38;15.00;99.90
11136;DHT22;5622;50.840;4.948;2023-05-08T23:57:06;15.00;99.90
11136;DHT22;5622;50.840;4.948;2023-05-08T23:59:33;14.90;99.90
